sensor_id;sensor_type;location;lat;lon;timestamp;pressure;altitude;pressure_sealevel;temperature
15607;BMP180;7865;50.918;4.510;2022-08-21T00:01:43;101226.00;;;16.20
15607;BMP180;7865;50.918;4.510;2022-08-21T00:06:45;101222.00;;;16.10
15607;BMP180;7865;50.918;4.510;2022-08-21T00:11:47;101220.00;;;16.00
15607;BMP180;7865;50.918;4.510;2022-08-21T00:16:50;101208.00;;;16.00
15607;BMP180;7865;50.918;4.510;2022-08-21T00:21:53;101205.00;;;15.90
15607;BMP180;7865;50.918;4.510;2022-08-21T00:26:55;101203.00;;;15.70
15607;BMP180;7865;50.918;4.510;2022-08-21T00:31:57;101199.00;;;15.70
15607;BMP180;7865;50.918;4.510;2022-08-21T00:37:00;101201.00;;;15.60
15607;BMP180;7865;50.918;4.510;2022-08-21T00:42:02;101206.00;;;15.50
15607;BMP180;7865;50.918;4.510;2022-08-21T00:47:04;101212.00;;;15.30
15607;BMP180;7865;50.918;4.510;2022-08-21T00:52:09;101218.00;;;15.10
15607;BMP180;7865;50.918;4.510;2022-08-21T00:57:15;101208.00;;;14.90
15607;BMP180;7865;50.918;4.510;2022-08-21T01:02:18;101216.00;;;14.80
15607;BMP180;7865;50.918;4.510;2022-08-21T01:07:21;101207.00;;;14.70
15607;BMP180;7865;50.918;4.510;2022-08-21T01:12:28;101209.00;;;14.50
15607;BMP180;7865;50.918;4.510;2022-08-21T01:17:30;101213.00;;;14.40
15607;BMP180;7865;50.918;4.510;2022-08-21T01:22:33;101217.00;;;14.30
15607;BMP180;7865;50.918;4.510;2022-08-21T01:27:36;101217.00;;;14.20
15607;BMP180;7865;50.918;4.510;2022-08-21T01:32:38;101215.00;;;14.20
15607;BMP180;7865;50.918;4.510;2022-08-21T01:37:41;101219.00;;;14.20
15607;BMP180;7865;50.918;4.510;2022-08-21T01:42:44;101221.00;;;14.10
15607;BMP180;7865;50.918;4.510;2022-08-21T01:47:47;101214.00;;;14.10
15607;BMP180;7865;50.918;4.510;2022-08-21T01:52:49;101212.00;;;14.00
15607;BMP180;7865;50.918;4.510;2022-08-21T01:57:51;101213.00;;;14.00
15607;BMP180;7865;50.918;4.510;2022-08-21T02:02:53;101215.00;;;14.00
15607;BMP180;7865;50.918;4.510;2022-08-21T02:07:55;101207.00;;;13.90
15607;BMP180;7865;50.918;4.510;2022-08-21T02:12:58;101204.00;;;13.90
15607;BMP180;7865;50.918;4.510;2022-08-21T02:18:05;101208.00;;;13.90
15607;BMP180;7865;50.918;4.510;2022-08-21T02:23:09;101205.00;;;13.90
15607;BMP180;7865;50.918;4.510;2022-08-21T02:28:13;101212.00;;;13.80
15607;BMP180;7865;50.918;4.510;2022-08-21T02:33:16;101202.00;;;13.70
15607;BMP180;7865;50.918;4.510;2022-08-21T02:38:26;101205.00;;;13.60
15607;BMP180;7865;50.918;4.510;2022-08-21T02:43:28;101203.00;;;13.60
15607;BMP180;7865;50.918;4.510;2022-08-21T02:48:31;101203.00;;;13.50
15607;BMP180;7865;50.918;4.510;2022-08-21T02:53:35;101197.00;;;13.40
15607;BMP180;7865;50.918;4.510;2022-08-21T02:58:41;101191.00;;;13.40
15607;BMP180;7865;50.918;4.510;2022-08-21T03:03:44;101205.00;;;13.40
15607;BMP180;7865;50.918;4.510;2022-08-21T03:08:47;101195.00;;;13.40
15607;BMP180;7865;50.918;4.510;2022-08-21T03:13:49;101195.00;;;13.40
15607;BMP180;7865;50.918;4.510;2022-08-21T03:18:51;101189.00;;;13.40
15607;BMP180;7865;50.918;4.510;2022-08-21T03:23:53;101190.00;;;13.40
15607;BMP180;7865;50.918;4.510;2022-08-21T03:28:55;101196.00;;;13.40
15607;BMP180;7865;50.918;4.510;2022-08-21T03:33:59;101186.00;;;13.40
15607;BMP180;7865;50.918;4.510;2022-08-21T03:39:01;101185.00;;;13.30
15607;BMP180;7865;50.918;4.510;2022-08-21T03:44:03;101183.00;;;13.30
15607;BMP180;7865;50.918;4.510;2022-08-21T03:49:06;101175.00;;;13.30
15607;BMP180;7865;50.918;4.510;2022-08-21T03:54:08;101181.00;;;13.30
15607;BMP180;7865;50.918;4.510;2022-08-21T03:59:10;101170.00;;;13.30
15607;BMP180;7865;50.918;4.510;2022-08-21T04:04:12;101173.00;;;13.30
15607;BMP180;7865;50.918;4.510;2022-08-21T04:09:14;101180.00;;;13.30
15607;BMP180;7865;50.918;4.510;2022-08-21T04:14:17;101178.00;;;13.30
15607;BMP180;7865;50.918;4.510;2022-08-21T04:19:19;101185.00;;;13.30
15607;BMP180;7865;50.918;4.510;2022-08-21T04:24:21;101185.00;;;13.30
15607;BMP180;7865;50.918;4.510;2022-08-21T04:29:23;101183.00;;;13.30
15607;BMP180;7865;50.918;4.510;2022-08-21T04:34:25;101187.00;;;13.30
15607;BMP180;7865;50.918;4.510;2022-08-21T04:39:27;101199.00;;;13.30
15607;BMP180;7865;50.918;4.510;2022-08-21T04:44:30;101193.00;;;13.30
15607;BMP180;7865;50.918;4.510;2022-08-21T04:49:32;101199.00;;;13.30
15607;BMP180;7865;50.918;4.510;2022-08-21T04:54:34;101208.00;;;13.40
15607;BMP180;7865;50.918;4.510;2022-08-21T04:59:44;101205.00;;;13.50
15607;BMP180;7865;50.918;4.510;2022-08-21T05:04:50;101208.00;;;13.60
15607;BMP180;7865;50.918;4.510;2022-08-21T05:09:53;101206.00;;;13.80
15607;BMP180;7865;50.918;4.510;2022-08-21T05:14:55;101198.00;;;14.00
15607;BMP180;7865;50.918;4.510;2022-08-21T05:19:57;101207.00;;;14.20
15607;BMP180;7865;50.918;4.510;2022-08-21T05:24:59;101219.00;;;14.50
15607;BMP180;7865;50.918;4.510;2022-08-21T05:30:03;101212.00;;;14.90
15607;BMP180;7865;50.918;4.510;2022-08-21T05:35:07;101211.00;;;15.30
15607;BMP180;7865;50.918;4.510;2022-08-21T05:40:09;101213.00;;;15.80
15607;BMP180;7865;50.918;4.510;2022-08-21T05:45:24;101217.00;;;16.00
15607;BMP180;7865;50.918;4.510;2022-08-21T05:50:44;101226.00;;;16.10
15607;BMP180;7865;50.918;4.510;2022-08-21T05:55:47;101230.00;;;16.30
15607;BMP180;7865;50.918;4.510;2022-08-21T06:00:50;101224.00;;;16.60
15607;BMP180;7865;50.918;4.510;2022-08-21T06:05:53;101221.00;;;17.00
15607;BMP180;7865;50.918;4.510;2022-08-21T06:10:58;101220.00;;;17.40
15607;BMP180;7865;50.918;4.510;2022-08-21T06:16:07;101223.00;;;18.10
15607;BMP180;7865;50.918;4.510;2022-08-21T06:21:10;101228.00;;;18.90
15607;BMP180;7865;50.918;4.510;2022-08-21T06:26:14;101228.00;;;19.60
15607;BMP180;7865;50.918;4.510;2022-08-21T06:31:24;101238.00;;;20.20
15607;BMP180;7865;50.918;4.510;2022-08-21T06:36:26;101229.00;;;20.80
15607;BMP180;7865;50.918;4.510;2022-08-21T06:41:28;101234.00;;;21.00
15607;BMP180;7865;50.918;4.510;2022-08-21T06:46:31;101238.00;;;21.20
15607;BMP180;7865;50.918;4.510;2022-08-21T06:51:33;101233.00;;;21.50
15607;BMP180;7865;50.918;4.510;2022-08-21T06:56:35;101236.00;;;21.40
15607;BMP180;7865;50.918;4.510;2022-08-21T07:01:39;101237.00;;;21.70
15607;BMP180;7865;50.918;4.510;2022-08-21T07:06:42;101233.00;;;22.00
15607;BMP180;7865;50.918;4.510;2022-08-21T07:11:47;101234.00;;;22.30
15607;BMP180;7865;50.918;4.510;2022-08-21T07:16:51;101240.00;;;22.60
15607;BMP180;7865;50.918;4.510;2022-08-21T07:21:57;101231.00;;;23.00
15607;BMP180;7865;50.918;4.510;2022-08-21T07:27:00;101228.00;;;23.20
15607;BMP180;7865;50.918;4.510;2022-08-21T07:32:03;101221.00;;;23.20
15607;BMP180;7865;50.918;4.510;2022-08-21T07:37:05;101225.00;;;22.90
15607;BMP180;7865;50.918;4.510;2022-08-21T07:42:10;101241.00;;;22.70
15607;BMP180;7865;50.918;4.510;2022-08-21T07:47:12;101238.00;;;22.80
15607;BMP180;7865;50.918;4.510;2022-08-21T07:52:14;101230.00;;;23.60
15607;BMP180;7865;50.918;4.510;2022-08-21T07:57:16;101227.00;;;24.30
15607;BMP180;7865;50.918;4.510;2022-08-21T08:02:27;101222.00;;;24.90
15607;BMP180;7865;50.918;4.510;2022-08-21T08:07:30;101221.00;;;25.50
15607;BMP180;7865;50.918;4.510;2022-08-21T08:12:37;101218.00;;;25.70
15607;BMP180;7865;50.918;4.510;2022-08-21T08:17:39;101218.00;;;25.20
15607;BMP180;7865;50.918;4.510;2022-08-21T08:22:41;101211.00;;;24.70
15607;BMP180;7865;50.918;4.510;2022-08-21T08:27:54;101200.00;;;24.40
15607;BMP180;7865;50.918;4.510;2022-08-21T08:32:56;101195.00;;;24.40
15607;BMP180;7865;50.918;4.510;2022-08-21T08:38:02;101200.00;;;24.40
15607;BMP180;7865;50.918;4.510;2022-08-21T08:43:05;101199.00;;;24.70
15607;BMP180;7865;50.918;4.510;2022-08-21T08:48:10;101196.00;;;25.40
15607;BMP180;7865;50.918;4.510;2022-08-21T08:53:22;101199.00;;;26.10
15607;BMP180;7865;50.918;4.510;2022-08-21T08:58:31;101195.00;;;26.60
15607;BMP180;7865;50.918;4.510;2022-08-21T09:03:34;101197.00;;;26.60
15607;BMP180;7865;50.918;4.510;2022-08-21T09:08:52;101195.00;;;27.20
15607;BMP180;7865;50.918;4.510;2022-08-21T09:29:54;101171.00;;;27.80
15607;BMP180;7865;50.918;4.510;2022-08-21T09:35:18;101180.00;;;28.80
15607;BMP180;7865;50.918;4.510;2022-08-21T09:40:33;101174.00;;;30.20
15607;BMP180;7865;50.918;4.510;2022-08-21T09:45:35;101172.00;;;31.20
15607;BMP180;7865;50.918;4.510;2022-08-21T09:50:37;101168.00;;;30.40
15607;BMP180;7865;50.918;4.510;2022-08-21T09:55:49;101165.00;;;29.20
15607;BMP180;7865;50.918;4.510;2022-08-21T10:01:20;101162.00;;;27.70
15607;BMP180;7865;50.918;4.510;2022-08-21T10:06:26;101160.00;;;27.00
15607;BMP180;7865;50.918;4.510;2022-08-21T10:11:29;101152.00;;;26.70
15607;BMP180;7865;50.918;4.510;2022-08-21T10:16:52;101157.00;;;25.80
15607;BMP180;7865;50.918;4.510;2022-08-21T10:27:47;101150.00;;;26.60
15607;BMP180;7865;50.918;4.510;2022-08-21T10:38:31;101136.00;;;28.50
15607;BMP180;7865;50.918;4.510;2022-08-21T10:50:00;101143.00;;;27.40
15607;BMP180;7865;50.918;4.510;2022-08-21T10:55:15;101137.00;;;28.90
15607;BMP180;7865;50.918;4.510;2022-08-21T11:00:21;101146.00;;;30.00
15607;BMP180;7865;50.918;4.510;2022-08-21T11:05:30;101141.00;;;30.70
15607;BMP180;7865;50.918;4.510;2022-08-21T11:21:30;101136.00;;;32.90
15607;BMP180;7865;50.918;4.510;2022-08-21T11:26:48;101141.00;;;33.50
15607;BMP180;7865;50.918;4.510;2022-08-21T11:32:19;101133.00;;;31.80
15607;BMP180;7865;50.918;4.510;2022-08-21T11:37:57;101134.00;;;31.40
15607;BMP180;7865;50.918;4.510;2022-08-21T11:59:06;101113.00;;;29.00
15607;BMP180;7865;50.918;4.510;2022-08-21T12:04:31;101100.00;;;28.50
15607;BMP180;7865;50.918;4.510;2022-08-21T12:09:34;101112.00;;;28.00
15607;BMP180;7865;50.918;4.510;2022-08-21T12:14:44;101085.00;;;30.30
15607;BMP180;7865;50.918;4.510;2022-08-21T12:20:02;101094.00;;;32.50
15607;BMP180;7865;50.918;4.510;2022-08-21T12:25:18;101107.00;;;33.20
15607;BMP180;7865;50.918;4.510;2022-08-21T12:35:37;101117.00;;;33.70
15607;BMP180;7865;50.918;4.510;2022-08-21T12:40:43;101124.00;;;31.20
15607;BMP180;7865;50.918;4.510;2022-08-21T12:45:49;101119.00;;;28.90
15607;BMP180;7865;50.918;4.510;2022-08-21T12:50:55;101129.00;;;27.40
15607;BMP180;7865;50.918;4.510;2022-08-21T12:56:04;101119.00;;;27.50
15607;BMP180;7865;50.918;4.510;2022-08-21T13:06:53;101124.00;;;28.50
15607;BMP180;7865;50.918;4.510;2022-08-21T13:11:56;101119.00;;;27.90
15607;BMP180;7865;50.918;4.510;2022-08-21T13:16:59;101115.00;;;27.70
15607;BMP180;7865;50.918;4.510;2022-08-21T13:22:02;101121.00;;;28.00
15607;BMP180;7865;50.918;4.510;2022-08-21T13:27:29;101116.00;;;29.10
15607;BMP180;7865;50.918;4.510;2022-08-21T13:32:35;101112.00;;;30.50
15607;BMP180;7865;50.918;4.510;2022-08-21T13:37:41;101107.00;;;29.70
15607;BMP180;7865;50.918;4.510;2022-08-21T13:42:45;101110.00;;;28.90
15607;BMP180;7865;50.918;4.510;2022-08-21T13:47:48;101111.00;;;28.80
15607;BMP180;7865;50.918;4.510;2022-08-21T13:53:03;101114.00;;;29.50
15607;BMP180;7865;50.918;4.510;2022-08-21T13:58:07;101096.00;;;28.00
15607;BMP180;7865;50.918;4.510;2022-08-21T14:03:11;101094.00;;;28.30
15607;BMP180;7865;50.918;4.510;2022-08-21T14:08:30;101083.00;;;29.70
15607;BMP180;7865;50.918;4.510;2022-08-21T14:13:45;101081.00;;;29.70
15607;BMP180;7865;50.918;4.510;2022-08-21T14:24:13;101088.00;;;30.50
15607;BMP180;7865;50.918;4.510;2022-08-21T14:29:23;101103.00;;;29.00
15607;BMP180;7865;50.918;4.510;2022-08-21T14:34:27;101096.00;;;29.00
15607;BMP180;7865;50.918;4.510;2022-08-21T14:39:36;101090.00;;;28.30
15607;BMP180;7865;50.918;4.510;2022-08-21T14:44:38;101107.00;;;27.30
15607;BMP180;7865;50.918;4.510;2022-08-21T14:49:40;101086.00;;;26.80
15607;BMP180;7865;50.918;4.510;2022-08-21T14:54:42;101081.00;;;26.30
15607;BMP180;7865;50.918;4.510;2022-08-21T14:59:44;101083.00;;;26.70
15607;BMP180;7865;50.918;4.510;2022-08-21T15:04:46;101076.00;;;27.70
15607;BMP180;7865;50.918;4.510;2022-08-21T15:09:48;101080.00;;;27.80
15607;BMP180;7865;50.918;4.510;2022-08-21T15:14:50;101079.00;;;27.70
15607;BMP180;7865;50.918;4.510;2022-08-21T15:19:52;101077.00;;;27.80
15607;BMP180;7865;50.918;4.510;2022-08-21T15:24:54;101074.00;;;27.20
15607;BMP180;7865;50.918;4.510;2022-08-21T15:29:56;101065.00;;;26.90
15607;BMP180;7865;50.918;4.510;2022-08-21T15:34:58;101065.00;;;26.60
15607;BMP180;7865;50.918;4.510;2022-08-21T15:40:00;101059.00;;;26.10
15607;BMP180;7865;50.918;4.510;2022-08-21T15:45:03;101058.00;;;26.10
15607;BMP180;7865;50.918;4.510;2022-08-21T15:50:07;101074.00;;;26.10
15607;BMP180;7865;50.918;4.510;2022-08-21T15:55:10;101063.00;;;26.10
15607;BMP180;7865;50.918;4.510;2022-08-21T16:00:22;101063.00;;;26.00
15607;BMP180;7865;50.918;4.510;2022-08-21T16:05:24;101065.00;;;25.80
15607;BMP180;7865;50.918;4.510;2022-08-21T16:10:27;101059.00;;;25.50
15607;BMP180;7865;50.918;4.510;2022-08-21T16:15:31;101053.00;;;25.10
15607;BMP180;7865;50.918;4.510;2022-08-21T16:20:33;101051.00;;;24.90
15607;BMP180;7865;50.918;4.510;2022-08-21T16:25:37;101056.00;;;24.70
15607;BMP180;7865;50.918;4.510;2022-08-21T16:30:43;101055.00;;;24.40
15607;BMP180;7865;50.918;4.510;2022-08-21T16:35:46;101050.00;;;24.20
15607;BMP180;7865;50.918;4.510;2022-08-21T16:40:48;101048.00;;;24.10
15607;BMP180;7865;50.918;4.510;2022-08-21T16:45:52;101051.00;;;23.80
15607;BMP180;7865;50.918;4.510;2022-08-21T16:50:55;101042.00;;;23.70
15607;BMP180;7865;50.918;4.510;2022-08-21T16:55:59;101049.00;;;23.60
15607;BMP180;7865;50.918;4.510;2022-08-21T17:01:05;101046.00;;;23.50
15607;BMP180;7865;50.918;4.510;2022-08-21T17:06:09;101041.00;;;23.60
15607;BMP180;7865;50.918;4.510;2022-08-21T17:11:32;101056.00;;;23.80
15607;BMP180;7865;50.918;4.510;2022-08-21T17:16:40;101045.00;;;23.90
15607;BMP180;7865;50.918;4.510;2022-08-21T17:21:43;101049.00;;;23.90
15607;BMP180;7865;50.918;4.510;2022-08-21T17:26:46;101041.00;;;23.90
15607;BMP180;7865;50.918;4.510;2022-08-21T17:31:48;101045.00;;;23.80
15607;BMP180;7865;50.918;4.510;2022-08-21T17:36:51;101052.00;;;23.60
15607;BMP180;7865;50.918;4.510;2022-08-21T17:41:54;101053.00;;;23.40
15607;BMP180;7865;50.918;4.510;2022-08-21T17:46:59;101056.00;;;23.20
15607;BMP180;7865;50.918;4.510;2022-08-21T17:52:01;101053.00;;;23.00
15607;BMP180;7865;50.918;4.510;2022-08-21T17:57:03;101051.00;;;22.80
15607;BMP180;7865;50.918;4.510;2022-08-21T18:02:06;101050.00;;;22.60
15607;BMP180;7865;50.918;4.510;2022-08-21T18:07:20;101042.00;;;22.40
15607;BMP180;7865;50.918;4.510;2022-08-21T18:12:33;101040.00;;;22.20
15607;BMP180;7865;50.918;4.510;2022-08-21T18:17:35;101042.00;;;22.00
15607;BMP180;7865;50.918;4.510;2022-08-21T18:22:37;101046.00;;;21.80
15607;BMP180;7865;50.918;4.510;2022-08-21T18:27:41;101046.00;;;21.50
15607;BMP180;7865;50.918;4.510;2022-08-21T18:32:46;101048.00;;;21.40
15607;BMP180;7865;50.918;4.510;2022-08-21T18:37:48;101049.00;;;21.20
15607;BMP180;7865;50.918;4.510;2022-08-21T18:42:50;101057.00;;;21.00
15607;BMP180;7865;50.918;4.510;2022-08-21T18:47:57;101051.00;;;20.90
15607;BMP180;7865;50.918;4.510;2022-08-21T18:52:59;101052.00;;;20.70
15607;BMP180;7865;50.918;4.510;2022-08-21T18:58:01;101055.00;;;20.60
15607;BMP180;7865;50.918;4.510;2022-08-21T19:03:04;101061.00;;;20.50
15607;BMP180;7865;50.918;4.510;2022-08-21T19:08:13;101067.00;;;20.40
15607;BMP180;7865;50.918;4.510;2022-08-21T19:13:18;101076.00;;;20.30
15607;BMP180;7865;50.918;4.510;2022-08-21T19:18:23;101076.00;;;20.30
15607;BMP180;7865;50.918;4.510;2022-08-21T19:23:29;101086.00;;;20.20
15607;BMP180;7865;50.918;4.510;2022-08-21T19:28:38;101076.00;;;20.20
15607;BMP180;7865;50.918;4.510;2022-08-21T19:33:48;101089.00;;;20.10
15607;BMP180;7865;50.918;4.510;2022-08-21T19:38:51;101094.00;;;20.10
15607;BMP180;7865;50.918;4.510;2022-08-21T19:43:57;101094.00;;;20.00
15607;BMP180;7865;50.918;4.510;2022-08-21T19:49:05;101093.00;;;20.00
15607;BMP180;7865;50.918;4.510;2022-08-21T19:54:20;101099.00;;;19.90
15607;BMP180;7865;50.918;4.510;2022-08-21T19:59:23;101089.00;;;19.90
15607;BMP180;7865;50.918;4.510;2022-08-21T20:04:26;101102.00;;;19.80
15607;BMP180;7865;50.918;4.510;2022-08-21T20:09:28;101113.00;;;19.80
15607;BMP180;7865;50.918;4.510;2022-08-21T20:14:31;101106.00;;;19.70
15607;BMP180;7865;50.918;4.510;2022-08-21T20:19:34;101110.00;;;19.70
15607;BMP180;7865;50.918;4.510;2022-08-21T20:24:39;101117.00;;;19.60
15607;BMP180;7865;50.918;4.510;2022-08-21T20:29:43;101114.00;;;19.50
15607;BMP180;7865;50.918;4.510;2022-08-21T20:34:45;101103.00;;;19.40
15607;BMP180;7865;50.918;4.510;2022-08-21T20:39:52;101101.00;;;19.30
15607;BMP180;7865;50.918;4.510;2022-08-21T20:44:54;101088.00;;;19.20
15607;BMP180;7865;50.918;4.510;2022-08-21T20:50:00;101094.00;;;19.10
15607;BMP180;7865;50.918;4.510;2022-08-21T20:55:09;101096.00;;;19.10
15607;BMP180;7865;50.918;4.510;2022-08-21T21:00:15;101093.00;;;19.10
15607;BMP180;7865;50.918;4.510;2022-08-21T21:05:28;101095.00;;;19.00
15607;BMP180;7865;50.918;4.510;2022-08-21T21:10:37;101091.00;;;18.90
15607;BMP180;7865;50.918;4.510;2022-08-21T21:15:46;101091.00;;;18.90
15607;BMP180;7865;50.918;4.510;2022-08-21T21:21:07;101094.00;;;18.80
15607;BMP180;7865;50.918;4.510;2022-08-21T21:26:19;101088.00;;;18.70
15607;BMP180;7865;50.918;4.510;2022-08-21T21:31:25;101096.00;;;18.70
15607;BMP180;7865;50.918;4.510;2022-08-21T22:18:59;101102.00;;;18.30
15607;BMP180;7865;50.918;4.510;2022-08-21T22:24:12;101110.00;;;18.20
15607;BMP180;7865;50.918;4.510;2022-08-21T22:29:21;101105.00;;;18.20
15607;BMP180;7865;50.918;4.510;2022-08-21T22:34:23;101111.00;;;18.20
15607;BMP180;7865;50.918;4.510;2022-08-21T22:39:34;101103.00;;;18.10
15607;BMP180;7865;50.918;4.510;2022-08-21T22:45:07;101106.00;;;18.10
15607;BMP180;7865;50.918;4.510;2022-08-21T22:50:30;101107.00;;;18.00
15607;BMP180;7865;50.918;4.510;2022-08-21T22:55:52;101102.00;;;17.90
15607;BMP180;7865;50.918;4.510;2022-08-21T23:06:32;101104.00;;;17.80
15607;BMP180;7865;50.918;4.510;2022-08-21T23:11:39;101113.00;;;17.80
15607;BMP180;7865;50.918;4.510;2022-08-21T23:17:03;101107.00;;;17.70
15607;BMP180;7865;50.918;4.510;2022-08-21T23:37:58;101107.00;;;17.60
15607;BMP180;7865;50.918;4.510;2022-08-21T23:43:41;101106.00;;;17.50
15607;BMP180;7865;50.918;4.510;2022-08-21T23:49:02;101102.00;;;17.40
15607;BMP180;7865;50.918;4.510;2022-08-21T23:54:18;101105.00;;;17.40
15607;BMP180;7865;50.918;4.510;2022-08-21T23:59:56;101094.00;;;17.30
